Time;durP1;ratioP1;P1;durP2;ratioP2;P2;SDS_P1;SDS_P2;PMS_P1;PMS_P2;Temp;Humidity;BMP_temperature;BMP_pressure;BME280_temperature;BME280_humidity;BME280_pressure;Samples;Min_cycle;Max_cycle;Signal;HPM_P1;HPM_P2
2023/01/25 00:02:00;;;;;;;22.37;10.87;;;1.20;99.90;;;;;;6210304;23;20445;-72
2023/01/25 00:04:28;;;;;;;18.37;9.67;;;1.10;99.90;;;;;;6209736;23;20411;-73
2023/01/25 00:06:55;;;;;;;19.33;11.07;;;1.10;99.90;;;;;;6209079;23;20450;-72
2023/01/25 00:09:23;;;;;;;26.03;13.50;;;1.10;99.90;;;;;;6209046;23;20415;-73
2023/01/25 00:11:52;;;;;;;20.13;11.67;;;1.10;99.90;;;;;;6209902;23;20585;-72
2023/01/25 00:14:19;;;;;;;22.87;12.23;;;1.00;99.90;;;;;;6209822;23;20458;-72
2023/01/25 00:16:45;;;;;;;19.77;12.00;;;1.00;99.90;;;;;;6210365;23;20740;-72
2023/01/25 00:19:12;;;;;;;26.90;11.67;;;0.90;99.90;;;;;;6210553;23;20415;-72
2023/01/25 00:21:39;;;;;;;22.83;11.70;;;1.00;99.90;;;;;;6209414;23;20465;-73
2023/01/25 00:24:07;;;;;;;21.93;11.50;;;0.90;99.90;;;;;;6210069;23;20418;-72
2023/01/25 00:26:35;;;;;;;26.70;12.40;;;1.00;99.90;;;;;;6210160;23;20414;-72
2023/01/25 00:29:03;;;;;;;23.13;10.97;;;0.90;99.90;;;;;;6210445;23;20410;-71
2023/01/25 00:31:46;;;;;;;23.13;10.33;;;0.90;99.90;;;;;;6210432;23;20417;-72
2023/01/25 00:34:38;;;;;;;18.50;10.67;;;1.00;99.90;;;;;;6210350;23;20706;-72
2023/01/25 00:37:14;;;;;;;20.37;11.00;;;1.00;99.90;;;;;;6209716;23;20632;-72
2023/01/25 00:39:41;;;;;;;18.87;11.00;;;1.00;99.90;;;;;;6209680;23;20853;-73
2023/01/25 00:42:10;;;;;;;23.60;12.17;;;1.00;99.90;;;;;;6209774;23;20458;-73
2023/01/25 00:44:38;;;;;;;21.73;10.53;;;1.10;99.90;;;;;;6210245;23;20625;-72
2023/01/25 00:47:05;;;;;;;20.03;10.20;;;1.10;99.90;;;;;;6209893;23;20405;-73
2023/01/25 00:49:32;;;;;;;22.50;11.20;;;1.10;99.90;;;;;;6210320;23;20435;-73
2023/01/25 00:52:00;;;;;;;20.07;9.93;;;1.10;99.90;;;;;;6210729;23;20426;-75
2023/01/25 00:54:27;;;;;;;21.67;11.50;;;1.10;99.90;;;;;;6211998;23;20419;-73
2023/01/25 00:56:55;;;;;;;20.40;10.63;;;1.00;99.90;;;;;;6211372;23;20754;-74
2023/01/25 00:59:22;;;;;;;18.33;11.17;;;1.00;99.90;;;;;;6212155;23;20426;-73
2023/01/25 01:01:52;;;;;;;17.37;10.07;;;1.10;99.90;;;;;;6211825;23;20443;-73
2023/01/25 01:04:19;;;;;;;19.70;11.00;;;1.10;99.90;;;;;;6210398;23;20421;-74
2023/01/25 01:06:46;;;;;;;17.53;10.70;;;1.00;99.90;;;;;;6209574;23;20785;-73
2023/01/25 01:09:15;;;;;;;21.40;12.33;;;1.00;99.90;;;;;;6208961;23;20419;-73
2023/01/25 01:11:42;;;;;;;25.53;12.27;;;1.00;99.90;;;;;;6209848;23;20453;-73
2023/01/25 01:14:09;;;;;;;25.57;12.17;;;1.10;99.90;;;;;;6209706;23;20420;-72
2023/01/25 01:16:36;;;;;;;25.70;13.03;;;1.00;99.90;;;;;;6210898;23;20411;-73
2023/01/25 01:19:05;;;;;;;27.33;13.07;;;1.00;99.90;;;;;;6212635;23;20527;-73
2023/01/25 01:21:31;;;;;;;25.10;12.50;;;1.00;99.90;;;;;;6212511;23;20443;-72
2023/01/25 01:23:58;;;;;;;25.53;14.30;;;0.90;99.90;;;;;;6213237;23;20411;-72
2023/01/25 01:26:25;;;;;;;26.20;12.27;;;0.80;99.90;;;;;;6212058;23;20407;-72
2023/01/25 01:28:52;;;;;;;24.20;13.00;;;0.80;99.90;;;;;;6212460;23;20497;-72
2023/01/25 01:31:20;;;;;;;26.30;13.40;;;0.90;99.90;;;;;;6209971;23;20411;-72
2023/01/25 01:33:49;;;;;;;24.90;11.90;;;0.90;99.90;;;;;;6210054;23;20421;-72
2023/01/25 01:36:19;;;;;;;27.07;13.40;;;0.90;99.90;;;;;;6209927;23;20406;-76
2023/01/25 01:38:46;;;;;;;24.20;11.63;;;0.90;99.90;;;;;;6209792;23;20876;-72
2023/01/25 01:41:14;;;;;;;22.87;11.37;;;0.90;99.90;;;;;;6208563;23;20406;-73
2023/01/25 01:43:41;;;;;;;28.20;12.87;;;0.90;99.90;;;;;;6209213;23;20902;-72
2023/01/25 01:46:13;;;;;;;32.53;14.03;;;0.80;99.90;;;;;;6209578;23;20411;-72
2023/01/25 01:48:44;;;;;;;24.33;13.30;;;0.80;99.90;;;;;;6209190;23;20429;-72
2023/01/25 01:51:16;;;;;;;25.67;12.70;;;0.80;99.90;;;;;;6209613;23;20399;-72
2023/01/25 01:53:48;;;;;;;30.43;13.23;;;0.90;99.90;;;;;;6209548;23;20387;-72
2023/01/25 01:56:19;;;;;;;19.40;10.67;;;0.90;99.90;;;;;;6210051;23;20470;-72
2023/01/25 01:58:49;;;;;;;21.77;10.93;;;0.90;99.90;;;;;;6209792;23;20398;-72
2023/01/25 02:01:17;;;;;;;20.03;11.00;;;0.90;99.90;;;;;;6209602;23;20746;-74
2023/01/25 02:03:44;;;;;;;22.10;11.13;;;1.00;99.90;;;;;;6211143;23;20414;-72
2023/01/25 02:06:15;;;;;;;25.53;11.80;;;1.00;99.90;;;;;;6211084;23;20443;-73
2023/01/25 02:08:42;;;;;;;28.40;11.73;;;1.00;99.90;;;;;;6211445;23;20415;-72
2023/01/25 02:11:12;;;;;;;29.80;12.70;;;1.00;99.90;;;;;;6211969;23;20411;-72
2023/01/25 02:13:39;;;;;;;24.40;12.07;;;1.00;99.90;;;;;;6210443;23;20464;-72
2023/01/25 02:16:13;;;;;;;25.40;12.67;;;0.90;99.90;;;;;;6211135;23;20740;-73
2023/01/25 02:18:40;;;;;;;25.93;12.90;;;0.80;99.90;;;;;;6211421;23;20835;-73
2023/01/25 02:21:07;;;;;;;24.20;13.50;;;0.90;99.90;;;;;;6210933;23;20892;-72
2023/01/25 02:23:42;;;;;;;27.43;13.73;;;0.80;99.90;;;;;;6211235;23;20951;-73
2023/01/25 02:26:11;;;;;;;23.67;12.27;;;0.70;99.90;;;;;;6210894;23;20480;-73
2023/01/25 02:28:42;;;;;;;24.33;12.47;;;0.70;99.90;;;;;;6211214;23;20407;-72
2023/01/25 02:31:09;;;;;;;22.67;11.67;;;0.80;99.90;;;;;;6210560;23;20886;-72
2023/01/25 02:33:36;;;;;;;27.87;13.13;;;0.80;99.90;;;;;;6210908;23;20405;-72
2023/01/25 02:36:19;;;;;;;24.03;11.83;;;0.90;99.90;;;;;;6211550;23;20411;-72
2023/01/25 02:38:51;;;;;;;23.43;12.53;;;0.90;99.90;;;;;;6211406;23;20498;-71
2023/01/25 02:41:24;;;;;;;21.00;10.97;;;0.90;99.90;;;;;;6211722;23;20391;-72
2023/01/25 02:43:51;;;;;;;26.30;11.50;;;0.90;99.90;;;;;;6211207;23;20384;-72
2023/01/25 02:46:24;;;;;;;20.87;11.33;;;0.90;99.90;;;;;;6210622;23;20390;-72
2023/01/25 02:48:52;;;;;;;22.47;11.30;;;0.80;99.90;;;;;;6211067;23;20966;-71
2023/01/25 02:51:19;;;;;;;16.93;10.17;;;0.90;99.90;;;;;;6211198;23;20477;-71
2023/01/25 02:53:46;;;;;;;21.63;11.17;;;0.30;99.90;;;;;;6210741;23;20411;-71
2023/01/25 02:56:13;;;;;;;21.90;10.07;;;0.90;99.90;;;;;;6210804;23;20528;-71
2023/01/25 02:58:41;;;;;;;13.80;8.17;;;0.80;99.90;;;;;;6210904;23;20411;-71
2023/01/25 03:01:09;;;;;;;21.77;9.60;;;0.90;99.90;;;;;;6210717;23;20391;-72
2023/01/25 03:03:35;;;;;;;19.43;11.33;;;0.80;99.90;;;;;;6210641;23;20439;-72
2023/01/25 03:06:02;;;;;;;15.93;10.20;;;0.70;99.90;;;;;;6210586;23;20983;-73
2023/01/25 03:08:29;;;;;;;22.10;10.60;;;0.70;99.90;;;;;;6210697;23;20868;-72
2023/01/25 03:10:57;;;;;;;24.80;13.67;;;0.80;99.90;;;;;;6210396;23;20506;-72
2023/01/25 03:13:24;;;;;;;18.80;10.07;;;0.70;99.90;;;;;;6210745;23;20561;-72
2023/01/25 03:15:58;;;;;;;20.50;9.60;;;0.70;99.90;;;;;;6210625;23;20392;-72
2023/01/25 03:18:25;;;;;;;25.23;12.13;;;0.70;99.90;;;;;;6210417;23;20390;-72
2023/01/25 03:20:52;;;;;;;23.43;12.70;;;0.70;99.90;;;;;;6210701;23;20414;-72
2023/01/25 03:23:19;;;;;;;20.33;10.63;;;0.70;99.90;;;;;;6210759;23;20459;-72
2023/01/25 03:25:46;;;;;;;20.33;10.80;;;0.80;99.90;;;;;;6210413;23;20442;-72
2023/01/25 03:28:13;;;;;;;19.80;10.40;;;0.80;99.90;;;;;;6210622;23;20424;-72
2023/01/25 03:30:39;;;;;;;20.37;10.83;;;0.80;99.90;;;;;;6210465;23;20400;-71
2023/01/25 03:33:08;;;;;;;20.70;11.13;;;0.70;99.90;;;;;;6210733;23;20395;-72
2023/01/25 03:35:34;;;;;;;27.70;12.07;;;0.70;99.90;;;;;;6210200;23;20406;-72
2023/01/25 03:38:01;;;;;;;23.87;12.07;;;0.80;99.90;;;;;;6210418;23;20795;-71
2023/01/25 03:40:28;;;;;;;29.20;13.50;;;0.70;99.90;;;;;;6210475;23;20407;-72
2023/01/25 03:42:55;;;;;;;24.30;10.73;;;0.70;99.90;;;;;;6210100;23;20464;-71
2023/01/25 03:45:21;;;;;;;20.50;10.97;;;0.60;99.90;;;;;;6210687;23;20419;-73
2023/01/25 03:47:48;;;;;;;24.90;12.13;;;0.60;99.90;;;;;;6210464;23;20430;-72
2023/01/25 03:50:17;;;;;;;20.53;10.40;;;0.60;99.90;;;;;;6210474;23;20407;-71
2023/01/25 03:52:46;;;;;;;22.43;11.13;;;0.70;99.90;;;;;;6209697;23;20395;-72
2023/01/25 03:55:13;;;;;;;17.13;10.30;;;0.70;99.90;;;;;;6209881;23;20459;-71
2023/01/25 03:57:39;;;;;;;22.27;11.20;;;0.70;99.90;;;;;;6210063;23;21161;-71
2023/01/25 04:00:09;;;;;;;24.93;11.73;;;0.60;99.90;;;;;;6210313;23;20900;-73
2023/01/25 04:02:36;;;;;;;21.80;10.90;;;0.70;99.90;;;;;;6210426;23;20450;-72
2023/01/25 04:05:02;;;;;;;23.50;11.40;;;0.60;99.90;;;;;;6210044;23;20441;-72
2023/01/25 04:07:32;;;;;;;24.30;11.47;;;0.50;99.90;;;;;;6210006;23;20423;-72
2023/01/25 04:09:59;;;;;;;23.43;9.47;;;0.50;99.90;;;;;;6208566;23;20469;-72
2023/01/25 04:12:26;;;;;;;23.07;10.97;;;0.50;99.90;;;;;;6209593;23;20414;-71
2023/01/25 04:14:53;;;;;;;20.87;11.80;;;0.60;99.90;;;;;;6210172;23;20413;-72
2023/01/25 04:17:19;;;;;;;18.67;11.13;;;0.60;99.90;;;;;;6210185;23;20498;-71
2023/01/25 04:19:46;;;;;;;22.30;9.53;;;0.70;99.90;;;;;;6209719;23;20931;-72
2023/01/25 04:22:13;;;;;;;22.13;11.83;;;0.70;99.90;;;;;;6209398;23;20442;-71
2023/01/25 04:24:41;;;;;;;16.80;10.33;;;0.70;99.90;;;;;;6209639;23;20931;-73
2023/01/25 04:27:09;;;;;;;18.47;10.40;;;0.70;99.90;;;;;;6209546;23;20397;-72
2023/01/25 04:29:36;;;;;;;20.77;10.10;;;0.70;99.90;;;;;;6209885;23;20929;-72
2023/01/25 04:32:03;;;;;;;21.93;12.50;;;0.60;99.90;;;;;;6209839;23;20412;-72
2023/01/25 04:34:29;;;;;;;23.20;9.97;;;0.60;99.90;;;;;;6209690;23;20498;-72
2023/01/25 04:36:56;;;;;;;18.90;8.40;;;0.60;99.90;;;;;;6210118;23;20397;-72
2023/01/25 04:39:23;;;;;;;17.93;9.47;;;0.60;99.90;;;;;;6210359;23;20418;-72
2023/01/25 04:41:51;;;;;;;22.60;12.00;;;0.70;99.90;;;;;;6209224;23;20422;-71
2023/01/25 04:44:18;;;;;;;22.53;9.23;;;0.50;99.90;;;;;;6209478;23;20473;-72
2023/01/25 04:46:44;;;;;;;19.67;10.30;;;0.60;99.90;;;;;;6210757;23;20414;-81
2023/01/25 04:49:11;;;;;;;24.50;10.20;;;0.50;99.90;;;;;;6208034;23;20443;-72
2023/01/25 04:51:38;;;;;;;20.03;8.87;;;0.60;99.90;;;;;;6208444;23;20406;-73
2023/01/25 04:54:05;;;;;;;13.67;8.13;;;0.60;99.90;;;;;;6207797;23;20414;-72
2023/01/25 04:56:32;;;;;;;35.53;17.63;;;0.60;99.90;;;;;;6207690;23;20410;-74
2023/01/25 04:59:00;;;;;;;20.00;10.30;;;0.60;99.90;;;;;;6207375;23;20473;-74
2023/01/25 05:01:27;;;;;;;22.30;9.87;;;0.60;99.90;;;;;;6208581;23;20407;-72
2023/01/25 05:03:53;;;;;;;19.17;9.97;;;0.70;99.90;;;;;;6210060;23;20430;-73
2023/01/25 05:06:20;;;;;;;17.23;10.00;;;0.70;99.90;;;;;;6208662;23;20442;-75
2023/01/25 05:08:47;;;;;;;22.23;9.70;;;0.80;99.90;;;;;;6208746;23;20421;-76
2023/01/25 05:11:14;;;;;;;15.23;9.00;;;0.80;99.90;;;;;;6209413;23;20477;-76
2023/01/25 05:13:40;;;;;;;17.53;9.70;;;0.80;99.90;;;;;;6210449;23;20403;-75
2023/01/25 05:16:09;;;;;;;16.30;8.53;;;0.80;99.90;;;;;;6209237;23;20904;-76
2023/01/25 05:18:36;;;;;;;18.90;9.27;;;0.70;99.90;;;;;;6209071;23;20501;-75
2023/01/25 05:21:03;;;;;;;17.73;8.50;;;0.80;99.90;;;;;;6209446;23;20410;-75
2023/01/25 05:23:29;;;;;;;18.60;8.00;;;0.80;99.90;;;;;;6212135;23;21060;-76
2023/01/25 05:28:40;;;;;;;17.43;7.80;;;0.80;99.90;;;;;;6212887;23;20384;-80
2023/01/25 05:31:08;;;;;;;15.83;8.17;;;0.70;99.90;;;;;;6212450;23;20395;-79
2023/01/25 05:33:35;;;;;;;14.63;7.90;;;0.70;99.90;;;;;;6210088;23;20402;-80
2023/01/25 05:36:02;;;;;;;16.87;8.40;;;0.70;99.90;;;;;;6209218;23;20944;-73
2023/01/25 05:38:30;;;;;;;17.43;8.53;;;0.70;99.90;;;;;;6210727;23;20414;-73
2023/01/25 05:40:58;;;;;;;14.73;8.17;;;0.70;99.90;;;;;;6211412;23;20905;-78
2023/01/25 05:43:25;;;;;;;14.03;7.70;;;0.70;99.90;;;;;;6211228;23;20576;-80
2023/01/25 05:45:53;;;;;;;23.13;10.60;;;0.70;99.90;;;;;;6210011;23;20409;-81
2023/01/25 05:48:21;;;;;;;17.13;8.00;;;0.80;99.90;;;;;;6210436;23;20444;-72
2023/01/25 05:50:48;;;;;;;15.43;8.27;;;0.80;99.90;;;;;;6210952;23;20407;-71
2023/01/25 05:53:14;;;;;;;9.97;7.07;;;0.70;99.90;;;;;;6210999;23;20906;-71
2023/01/25 05:55:41;;;;;;;19.70;8.17;;;0.70;99.90;;;;;;6210526;23;20737;-70
2023/01/25 05:58:08;;;;;;;14.80;7.20;;;0.70;99.90;;;;;;6210434;23;20402;-71
2023/01/25 06:00:35;;;;;;;13.90;7.40;;;0.70;99.90;;;;;;6210023;23;20417;-71
2023/01/25 06:03:02;;;;;;;13.90;7.57;;;0.70;99.90;;;;;;6210288;23;20446;-72
2023/01/25 06:05:30;;;;;;;19.37;6.93;;;0.70;99.90;;;;;;6210178;23;20777;-72
2023/01/25 06:07:58;;;;;;;21.13;8.67;;;0.70;99.90;;;;;;6209894;23;20403;-71
2023/01/25 06:10:25;;;;;;;17.07;8.17;;;0.70;99.90;;;;;;6210658;23;20469;-73
2023/01/25 06:12:57;;;;;;;11.00;6.60;;;0.70;99.90;;;;;;6210374;23;20986;-75
2023/01/25 06:15:24;;;;;;;12.80;7.47;;;0.70;99.90;;;;;;6211044;23;20742;-74
2023/01/25 06:17:54;;;;;;;19.33;9.10;;;0.60;99.90;;;;;;6210198;23;20771;-75
2023/01/25 06:20:21;;;;;;;17.83;7.80;;;0.60;99.90;;;;;;6210298;23;20439;-75
2023/01/25 06:22:51;;;;;;;13.70;8.67;;;0.70;99.90;;;;;;6209898;23;20453;-75
2023/01/25 06:25:18;;;;;;;12.23;7.33;;;0.70;99.90;;;;;;6209329;23;20501;-75
2023/01/25 06:27:44;;;;;;;16.67;7.60;;;0.80;99.90;;;;;;6210035;23;20394;-75
2023/01/25 06:30:12;;;;;;;15.77;7.93;;;0.70;99.90;;;;;;6210379;23;20417;-75
2023/01/25 06:32:39;;;;;;;12.17;6.67;;;0.70;99.90;;;;;;6210511;23;20406;-75
2023/01/25 06:35:06;;;;;;;13.50;7.90;;;0.70;99.90;;;;;;6209752;23;20420;-74
2023/01/25 06:37:33;;;;;;;17.10;8.33;;;0.70;99.90;;;;;;6209907;23;20788;-70
2023/01/25 06:40:01;;;;;;;14.20;7.37;;;0.70;99.90;;;;;;6211283;23;20407;-71
2023/01/25 06:42:28;;;;;;;12.77;7.97;;;0.70;99.90;;;;;;6209840;23;20442;-70
2023/01/25 06:44:55;;;;;;;14.60;8.50;;;0.60;99.90;;;;;;6210109;23;20943;-70
2023/01/25 06:47:22;;;;;;;9.73;5.73;;;0.60;99.90;;;;;;6210720;23;20399;-71
2023/01/25 06:49:48;;;;;;;14.60;7.80;;;0.60;99.90;;;;;;6209989;23;20919;-71
2023/01/25 06:52:15;;;;;;;11.53;7.20;;;0.60;99.90;;;;;;6211362;23;20415;-71
2023/01/25 06:54:42;;;;;;;10.87;6.33;;;0.50;99.90;;;;;;6210833;23;20406;-71
2023/01/25 06:57:10;;;;;;;12.93;7.90;;;0.50;99.90;;;;;;6211297;23;20417;-71
2023/01/25 06:59:37;;;;;;;12.80;7.73;;;0.50;99.90;;;;;;6211483;23;20418;-71
2023/01/25 07:02:04;;;;;;;11.00;5.87;;;0.50;99.90;;;;;;6211969;23;20909;-73
2023/01/25 07:04:31;;;;;;;12.03;6.77;;;0.50;99.90;;;;;;6212385;23;20447;-75
2023/01/25 07:06:58;;;;;;;14.50;5.77;;;0.50;99.90;;;;;;6211959;23;20771;-75
2023/01/25 07:09:25;;;;;;;14.93;7.20;;;0.40;99.90;;;;;;6213250;23;20414;-75
2023/01/25 07:11:52;;;;;;;13.80;8.90;;;0.40;99.90;;;;;;6212695;23;20457;-74
2023/01/25 07:14:20;;;;;;;15.43;8.10;;;0.40;99.90;;;;;;6213041;23;20490;-76
2023/01/25 07:16:47;;;;;;;11.37;6.90;;;0.40;99.90;;;;;;6213679;23;20723;-78
2023/01/25 07:19:13;;;;;;;13.17;7.10;;;0.40;99.90;;;;;;6213749;23;20497;-78
2023/01/25 07:21:41;;;;;;;13.90;7.30;;;0.50;99.90;;;;;;6212589;23;20734;-76
2023/01/25 07:24:07;;;;;;;15.47;7.90;;;0.50;99.90;;;;;;6212751;23;20445;-76
2023/01/25 07:26:34;;;;;;;13.83;7.10;;;0.40;99.90;;;;;;6212550;23;20423;-76
2023/01/25 07:29:01;;;;;;;10.70;6.90;;;0.40;99.90;;;;;;6211996;23;20403;-79
2023/01/25 07:31:29;;;;;;;13.20;7.40;;;0.40;99.90;;;;;;6211595;23;20501;-77
2023/01/25 07:33:57;;;;;;;13.73;7.37;;;0.40;99.90;;;;;;6210665;23;20470;-76
2023/01/25 07:36:25;;;;;;;12.53;8.10;;;0.40;99.90;;;;;;6211318;23;20530;-81
2023/01/25 07:38:54;;;;;;;16.97;8.87;;;0.40;99.90;;;;;;6210544;23;20750;-77
2023/01/25 07:41:20;;;;;;;12.90;7.73;;;0.50;99.90;;;;;;6210396;23;20468;-78
2023/01/25 07:43:47;;;;;;;10.53;6.50;;;0.50;99.90;;;;;;6210875;23;20631;-75
2023/01/25 07:46:15;;;;;;;10.53;7.10;;;0.60;99.90;;;;;;6210469;23;21083;-74
2023/01/25 07:48:46;;;;;;;15.43;8.07;;;0.60;99.90;;;;;;6209534;23;20431;-71
2023/01/25 07:51:22;;;;;;;13.80;6.83;;;0.60;99.90;;;;;;6209796;23;20861;-76
2023/01/25 07:53:50;;;;;;;11.47;7.03;;;0.60;99.90;;;;;;6211361;23;20611;-75
2023/01/25 07:56:18;;;;;;;14.37;9.20;;;0.60;99.90;;;;;;6210475;23;20410;-76
2023/01/25 07:58:45;;;;;;;15.70;7.57;;;0.60;99.90;;;;;;6210443;23;20415;-76
2023/01/25 08:01:14;;;;;;;11.13;6.43;;;0.60;99.90;;;;;;6209930;23;20835;-76
2023/01/25 08:03:43;;;;;;;18.60;9.17;;;0.60;99.90;;;;;;6210282;23;20453;-78
2023/01/25 08:06:11;;;;;;;10.60;6.77;;;0.60;99.90;;;;;;6209663;23;20443;-76
2023/01/25 08:08:40;;;;;;;12.90;7.67;;;0.50;99.90;;;;;;6210122;23;20923;-77
2023/01/25 08:11:12;;;;;;;13.60;6.77;;;0.40;99.90;;;;;;6209322;23;20413;-79
2023/01/25 08:13:39;;;;;;;9.90;6.33;;;0.50;99.90;;;;;;6210426;23;20402;-77
2023/01/25 08:16:07;;;;;;;17.40;11.27;;;0.50;99.90;;;;;;6209302;23;20424;-75
2023/01/25 08:18:34;;;;;;;14.67;6.83;;;0.50;99.90;;;;;;6209285;23;20395;-77
2023/01/25 08:21:02;;;;;;;10.93;6.23;;;0.50;99.90;;;;;;6207608;23;20450;-74
2023/01/25 08:23:29;;;;;;;11.80;6.13;;;0.60;99.90;;;;;;6208333;23;20470;-74
2023/01/25 08:25:56;;;;;;;11.50;6.90;;;0.70;99.90;;;;;;6208035;23;20653;-75
2023/01/25 08:28:23;;;;;;;10.57;6.20;;;0.70;99.90;;;;;;6208692;23;20478;-75
2023/01/25 08:30:50;;;;;;;7.80;5.77;;;0.70;99.90;;;;;;6208604;23;20773;-74
2023/01/25 08:33:16;;;;;;;10.27;6.63;;;0.80;99.90;;;;;;6208735;23;20425;-72
2023/01/25 08:35:43;;;;;;;10.20;5.73;;;0.80;99.90;;;;;;6207432;23;20421;-73
2023/01/25 08:38:11;;;;;;;14.43;7.37;;;0.70;99.90;;;;;;6208543;23;20421;-81
2023/01/25 08:40:38;;;;;;;13.03;7.00;;;0.80;99.90;;;;;;6208153;23;20425;-73
2023/01/25 08:43:05;;;;;;;12.23;7.03;;;0.80;99.90;;;;;;6206305;23;20904;-74
2023/01/25 08:45:35;;;;;;;11.20;7.83;;;0.80;99.90;;;;;;6207867;23;20547;-73
2023/01/25 08:48:02;;;;;;;14.97;9.20;;;0.70;99.90;;;;;;6208549;23;20431;-73
2023/01/25 08:50:29;;;;;;;13.10;7.50;;;0.80;99.90;;;;;;6208962;23;20416;-74
2023/01/25 08:52:56;;;;;;;7.87;6.10;;;0.50;99.90;;;;;;6211139;23;20958;-73
2023/01/25 08:55:24;;;;;;;13.37;7.10;;;0.60;99.90;;;;;;6210009;23;20509;-73
2023/01/25 08:57:51;;;;;;;10.37;5.83;;;0.60;99.90;;;;;;6209518;23;20613;-73
2023/01/25 09:00:19;;;;;;;9.17;6.00;;;0.60;99.90;;;;;;6208687;23;20448;-73
2023/01/25 09:02:45;;;;;;;13.10;7.23;;;0.70;99.90;;;;;;6208111;23;20512;-76
2023/01/25 09:05:12;;;;;;;8.40;6.33;;;0.80;99.90;;;;;;6208193;23;20454;-74
2023/01/25 09:07:39;;;;;;;15.03;7.53;;;0.80;99.90;;;;;;6208854;23;20406;-73
2023/01/25 09:10:07;;;;;;;13.67;8.03;;;0.60;99.90;;;;;;6209155;23;20426;-75
2023/01/25 09:12:36;;;;;;;14.50;7.90;;;0.60;99.90;;;;;;6209425;23;20414;-78
2023/01/25 09:15:03;;;;;;;11.70;6.47;;;0.60;99.90;;;;;;6211487;23;20410;-75
2023/01/25 09:17:29;;;;;;;9.90;6.73;;;0.60;99.90;;;;;;6210687;23;20445;-78
2023/01/25 09:19:56;;;;;;;15.73;8.67;;;0.90;99.90;;;;;;6210323;23;20411;-75
2023/01/25 09:22:23;;;;;;;11.97;6.93;;;0.60;99.90;;;;;;6210986;23;20414;-76
2023/01/25 09:24:52;;;;;;;12.40;7.90;;;0.70;99.90;;;;;;6208303;23;20456;-73
2023/01/25 09:27:19;;;;;;;10.50;6.73;;;0.60;99.90;;;;;;6208311;23;20449;-73
2023/01/25 09:29:47;;;;;;;14.20;7.30;;;0.70;99.90;;;;;;6207868;23;20851;-73
2023/01/25 09:32:14;;;;;;;12.00;7.63;;;0.70;99.90;;;;;;6208482;23;20405;-74
2023/01/25 09:34:41;;;;;;;11.83;5.73;;;0.80;99.90;;;;;;6209223;23;20411;-74
2023/01/25 09:37:08;;;;;;;11.90;6.13;;;0.80;99.90;;;;;;6209198;23;20398;-73
2023/01/25 09:39:35;;;;;;;14.83;7.80;;;0.70;99.90;;;;;;6209376;23;20728;-72
2023/01/25 09:42:27;;;;;;;14.10;7.70;;;0.70;99.90;;;;;;6208854;23;20948;-74
2023/01/25 09:45:11;;;;;;;9.97;6.50;;;0.70;99.90;;;;;;6207366;23;20447;-74
2023/01/25 09:47:45;;;;;;;14.00;7.57;;;0.70;99.90;;;;;;6208065;23;20431;-74
2023/01/25 09:50:34;;;;;;;13.97;7.20;;;0.70;99.90;;;;;;6208715;23;20857;-73
2023/01/25 09:53:31;;;;;;;11.43;7.00;;;0.80;99.90;;;;;;6192152;23;20916;-74
2023/01/25 09:55:59;;;;;;;16.33;7.17;;;0.80;99.90;;;;;;6208544;23;20410;-75
2023/01/25 09:58:32;;;;;;;13.70;7.90;;;0.80;99.90;;;;;;6207896;23;20417;-74
2023/01/25 10:01:25;;;;;;;11.03;7.17;;;1.00;99.90;;;;;;6207339;23;20383;-75
2023/01/25 10:03:58;;;;;;;15.50;7.57;;;0.90;99.90;;;;;;6197169;23;20423;-74
2023/01/25 10:06:35;;;;;;;14.90;7.30;;;0.70;99.90;;;;;;6207561;23;20426;-74
2023/01/25 10:09:12;;;;;;;12.27;7.43;;;0.70;99.90;;;;;;6207854;23;20882;-74
2023/01/25 10:11:40;;;;;;;12.17;8.20;;;0.80;99.90;;;;;;6207490;23;20394;-76
2023/01/25 10:14:13;;;;;;;14.57;7.90;;;0.80;99.90;;;;;;6207555;23;20419;-73
2023/01/25 10:16:50;;;;;;;16.17;8.23;;;0.80;99.90;;;;;;6208011;23;20398;-75
2023/01/25 10:19:22;;;;;;;16.67;7.20;;;0.80;99.90;;;;;;6207616;23;20379;-74
2023/01/25 10:21:55;;;;;;;14.90;8.50;;;0.80;99.90;;;;;;6207389;23;20422;-75
2023/01/25 10:24:39;;;;;;;13.07;8.03;;;0.90;99.90;;;;;;6208580;23;20739;-74
2023/01/25 10:27:17;;;;;;;15.60;7.93;;;0.90;99.90;;;;;;6209496;23;20391;-72
2023/01/25 10:29:44;;;;;;;16.93;8.30;;;0.90;99.90;;;;;;6209699;23;20398;-72
2023/01/25 10:32:18;;;;;;;19.20;9.00;;;0.90;99.90;;;;;;6209635;23;20420;-72
2023/01/25 10:34:49;;;;;;;13.80;7.87;;;0.80;99.90;;;;;;6209555;23;20383;-72
2023/01/25 10:37:21;;;;;;;19.87;9.50;;;0.70;99.90;;;;;;6208275;23;20496;-74
2023/01/25 10:39:54;;;;;;;14.27;7.57;;;0.60;99.90;;;;;;6209442;23;20398;-73
2023/01/25 10:42:24;;;;;;;16.33;8.70;;;0.60;99.90;;;;;;6207283;23;20405;-74
2023/01/25 10:44:50;;;;;;;15.57;7.67;;;0.50;99.90;;;;;;6209503;23;20780;-73
2023/01/25 10:47:24;;;;;;;15.60;8.40;;;0.50;99.90;;;;;;6209528;23;20483;-73
2023/01/25 10:49:52;;;;;;;13.70;9.27;;;0.50;99.90;;;;;;6211886;23;20379;-80
2023/01/25 10:52:21;;;;;;;17.43;9.47;;;0.50;99.90;;;;;;6211793;23;20420;-74
2023/01/25 10:54:49;;;;;;;12.87;7.67;;;0.50;99.90;;;;;;6209723;23;20439;-75
2023/01/25 10:57:18;;;;;;;17.37;8.97;;;0.50;99.90;;;;;;6210227;23;20412;-75
2023/01/25 10:59:48;;;;;;;19.20;9.70;;;0.50;99.90;;;;;;6210195;23;20395;-73
2023/01/25 11:02:39;;;;;;;18.70;9.27;;;0.50;99.90;;;;;;6207807;23;20745;-76
2023/01/25 11:05:26;;;;;;;21.47;10.10;;;0.30;99.90;;;;;;6203826;23;20457;-75
2023/01/25 11:07:53;;;;;;;18.90;9.30;;;0.50;99.90;;;;;;6210094;23;20502;-77
2023/01/25 11:10:28;;;;;;;21.83;10.50;;;0.60;99.90;;;;;;6209659;23;21019;-75
2023/01/25 11:13:19;;;;;;;14.27;8.30;;;0.60;99.90;;;;;;6208853;23;20461;-77
2023/01/25 11:15:48;;;;;;;21.30;8.43;;;0.60;99.90;;;;;;6209763;23;20475;-77
2023/01/25 11:18:20;;;;;;;18.40;8.90;;;0.70;99.90;;;;;;6210127;23;20415;-76
2023/01/25 11:20:47;;;;;;;15.77;9.40;;;0.70;99.90;;;;;;6209165;23;20474;-79
2023/01/25 11:23:23;;;;;;;16.90;9.33;;;0.50;99.90;;;;;;6209140;23;20411;-76
2023/01/25 11:25:51;;;;;;;19.87;9.70;;;0.80;99.90;;;;;;6209764;23;20434;-80
2023/01/25 11:28:21;;;;;;;18.63;9.07;;;0.80;99.90;;;;;;6210352;23;20415;-75
2023/01/25 11:30:49;;;;;;;17.63;9.07;;;0.70;99.90;;;;;;6209897;23;20426;-75
2023/01/25 11:33:20;;;;;;;16.23;8.63;;;0.70;99.90;;;;;;6209837;23;20412;-76
2023/01/25 11:36:10;;;;;;;22.87;8.10;;;0.80;99.90;;;;;;6208031;23;20491;-75
2023/01/25 11:38:44;;;;;;;17.20;9.50;;;0.80;99.90;;;;;;6208480;23;20484;-75
2023/01/25 11:41:20;;;;;;;18.53;8.70;;;0.80;99.90;;;;;;6208993;23;20515;-76
2023/01/25 11:44:02;;;;;;;11.80;8.30;;;0.90;99.90;;;;;;6208801;23;20418;-77
2023/01/25 11:46:51;;;;;;;15.83;9.20;;;0.90;99.90;;;;;;6206860;23;20854;-74
2023/01/25 11:49:31;;;;;;;14.33;8.10;;;0.90;99.90;;;;;;6208210;23;20426;-77
2023/01/25 11:52:08;;;;;;;16.10;8.40;;;0.80;99.90;;;;;;6209225;23;20477;-74
2023/01/25 11:54:45;;;;;;;17.97;9.10;;;0.60;99.90;;;;;;6208059;23;20422;-76
2023/01/25 11:57:43;;;;;;;20.63;8.97;;;0.70;99.90;;;;;;6207453;23;20426;-76
2023/01/25 12:00:35;;;;;;;13.60;7.50;;;0.70;99.90;;;;;;6186975;23;21007;-76
2023/01/25 12:03:33;;;;;;;16.27;8.97;;;0.70;99.90;;;;;;6204244;23;20429;-75
2023/01/25 12:06:07;;;;;;;14.27;8.20;;;0.70;99.90;;;;;;6208779;23;20462;-76
2023/01/25 12:08:58;;;;;;;15.40;8.90;;;0.80;99.90;;;;;;6206676;23;20880;-75
2023/01/25 12:11:36;;;;;;;19.63;11.07;;;0.80;99.90;;;;;;6207160;23;20663;-74
2023/01/25 12:14:12;;;;;;;20.60;9.10;;;0.90;99.90;;;;;;6207248;23;20404;-77
2023/01/25 12:16:52;;;;;;;11.13;7.90;;;0.90;99.90;;;;;;6208050;23;20751;-76
2023/01/25 12:19:43;;;;;;;11.40;7.17;;;0.90;99.90;;;;;;6207691;23;20385;-76
2023/01/25 12:22:34;;;;;;;17.77;9.30;;;1.00;99.90;;;;;;6207933;23;20389;-78
2023/01/25 12:25:16;;;;;;;17.93;8.20;;;1.00;99.90;;;;;;6208864;23;20434;-76
2023/01/25 12:27:55;;;;;;;13.70;6.87;;;0.80;99.90;;;;;;6208118;23;20489;-79
2023/01/25 12:30:28;;;;;;;10.63;7.50;;;0.90;99.90;;;;;;6209217;23;20445;-76
2023/01/25 12:33:00;;;;;;;10.67;7.43;;;0.90;99.90;;;;;;6207332;23;20414;-78
2023/01/25 12:35:33;;;;;;;16.50;7.63;;;0.80;99.90;;;;;;6207733;23;20912;-76
2023/01/25 12:38:04;;;;;;;16.77;8.70;;;0.80;99.90;;;;;;6207949;23;20723;-74
2023/01/25 12:40:45;;;;;;;14.30;7.87;;;0.80;99.90;;;;;;6207969;23;20399;-74
2023/01/25 12:43:18;;;;;;;17.47;8.53;;;0.70;99.90;;;;;;6208018;23;20644;-77
2023/01/25 12:45:49;;;;;;;15.87;8.83;;;0.80;99.90;;;;;;6207069;23;20819;-75
2023/01/25 12:48:20;;;;;;;12.90;7.03;;;0.80;99.90;;;;;;6207368;23;21008;-74
2023/01/25 12:50:53;;;;;;;14.30;8.30;;;0.80;99.90;;;;;;6207912;23;20485;-76
2023/01/25 12:53:25;;;;;;;13.33;8.33;;;0.80;99.90;;;;;;6201329;23;20396;-78
2023/01/25 12:55:53;;;;;;;13.63;8.30;;;0.80;99.90;;;;;;6204602;23;20892;-77
2023/01/25 12:58:27;;;;;;;17.50;8.50;;;0.90;99.90;;;;;;6202816;23;20414;-73
2023/01/25 13:01:00;;;;;;;16.47;8.50;;;0.80;99.90;;;;;;6203889;23;20418;-77